Time;durP1;ratioP1;P1;durP2;ratioP2;P2;SDS_P1;SDS_P2;PMS_P1;PMS_P2;Temp;Humidity;BMP_temperature;BMP_pressure;BME280_temperature;BME280_humidity;BME280_pressure;Samples;Min_cycle;Max_cycle;Signal;HPM_P1;HPM_P2
2024/02/09 00:00:25;;;;;;;1.97;1.87;;;;;;;2.68;100.00;99562.13;6236557;28;20720;-68
2024/02/09 00:03:46;;;;;;;3.20;2.87;;;;;;;2.63;100.00;99551.81;6233838;28;20228;-69
2024/02/09 00:07:09;;;;;;;2.57;1.87;;;;;;;2.61;100.00;99547.63;6240448;28;20559;-68
2024/02/09 00:10:30;;;;;;;8.33;2.30;;;;;;;2.47;100.00;99540.69;6234074;28;20252;-68
2024/02/09 00:13:51;;;;;;;7.67;3.00;;;;;;;2.50;100.00;99521.84;6238507;28;20675;-69
2024/02/09 00:17:13;;;;;;;2.47;2.27;;;;;;;2.50;100.00;99521.84;6236477;28;20240;-70
2024/02/09 00:20:34;;;;;;;2.97;2.77;;;;;;;2.55;100.00;99502.84;6236760;28;20232;-69
2024/02/09 00:23:57;;;;;;;3.47;2.10;;;;;;;2.47;100.00;99491.97;6248134;28;20227;-69
2024/02/09 00:27:19;;;;;;;2.63;2.43;;;;;;;2.54;100.00;99496.72;6230287;28;20228;-70
2024/02/09 00:30:43;;;;;;;2.30;2.20;;;;;;;2.56;100.00;99483.28;6229572;28;20224;-69
2024/02/09 00:34:04;;;;;;;2.50;2.40;;;;;;;2.64;100.00;99470.22;6235768;28;20236;-69
2024/02/09 00:37:26;;;;;;;4.27;2.40;;;;;;;2.65;100.00;99466.59;6233419;28;20254;-69
2024/02/09 00:40:51;;;;;;;2.10;2.00;;;;;;;2.63;100.00;99469.38;6236292;28;20319;-69
2024/02/09 00:44:12;;;;;;;2.20;2.00;;;;;;;2.63;100.00;99465.88;6244575;28;20231;-68
2024/02/09 00:47:33;;;;;;;2.00;1.90;;;;;;;2.60;100.00;99466.13;6221123;28;20228;-68
2024/02/09 00:50:54;;;;;;;2.20;2.07;;;;;;;2.62;100.00;99480.13;6236621;28;20243;-69
2024/02/09 00:54:15;;;;;;;3.50;2.37;;;;;;;2.52;100.00;99464.06;6236137;28;20220;-69
2024/02/09 00:57:38;;;;;;;2.70;2.50;;;;;;;2.51;100.00;99441.09;6240467;28;20232;-69
2024/02/09 01:00:59;;;;;;;2.90;2.70;;;;;;;2.32;100.00;99448.81;6236611;28;20645;-70
2024/02/09 01:04:20;;;;;;;3.37;3.17;;;;;;;2.35;100.00;99449.44;6247837;28;20252;-69
2024/02/09 01:07:41;;;;;;;4.03;3.67;;;;;;;2.43;100.00;99444.34;6241370;28;20311;-69
2024/02/09 01:11:05;;;;;;;4.77;3.80;;;;;;;2.47;100.00;99436.13;6245780;28;20314;-69
2024/02/09 02:45:39;;;;;;;3.47;2.63;;;;;;;2.27;100.00;99292.31;6240716;28;20235;-70
2024/02/09 03:07:28;;;;;;;2.37;2.17;;;;;;;2.21;100.00;99260.91;6242476;28;20307;-68
2024/02/09 03:10:49;;;;;;;3.53;2.27;;;;;;;2.20;100.00;99255.72;6231196;28;20228;-68
2024/02/09 03:14:11;;;;;;;2.70;2.50;;;;;;;2.19;100.00;99251.41;6250211;28;20590;-69
2024/02/09 03:17:33;;;;;;;2.17;2.07;;;;;;;2.16;100.00;99249.84;6239863;28;20656;-69
2024/02/09 03:20:55;;;;;;;2.10;2.00;;;;;;;2.16;100.00;99241.84;6238229;28;20228;-68
2024/02/09 03:24:16;;;;;;;1.80;1.70;;;;;;;2.25;100.00;99241.09;6246560;28;20240;-69
2024/02/09 03:27:38;;;;;;;3.77;2.13;;;;;;;2.25;100.00;99235.78;6237415;28;20327;-69
2024/02/09 03:30:59;;;;;;;1.70;1.60;;;;;;;2.21;100.00;99233.53;6233222;28;20657;-69
2024/02/09 03:34:20;;;;;;;2.20;2.00;;;;;;;2.11;100.00;99212.13;6240571;28;20243;-69
2024/02/09 03:37:44;;;;;;;3.53;2.37;;;;;;;2.20;100.00;99218.53;6237913;28;20542;-69
2024/02/09 03:41:05;;;;;;;2.17;2.07;;;;;;;2.11;100.00;99205.97;6234639;28;20232;-69
2024/02/09 03:44:26;;;;;;;2.27;2.17;;;;;;;2.12;100.00;99203.22;6249790;28;20307;-69
2024/02/09 03:47:47;;;;;;;1.87;1.77;;;;;;;2.16;100.00;99203.78;6234913;28;20806;-69
2024/02/09 03:51:08;;;;;;;1.80;1.70;;;;;;;2.13;100.00;99188.94;6241332;28;20243;-68
2024/02/09 03:54:30;;;;;;;1.90;1.80;;;;;;;2.17;100.00;99182.41;6243387;28;20523;-69
2024/02/09 03:57:51;;;;;;;2.10;2.00;;;;;;;2.18;100.00;99191.22;6236935;28;20236;-69
2024/02/09 04:01:12;;;;;;;1.73;1.63;;;;;;;2.22;100.00;99182.88;6232539;28;20232;-68
2024/02/09 04:04:33;;;;;;;1.90;1.80;;;;;;;2.09;100.00;99173.38;6241801;28;20224;-69
2024/02/09 04:07:54;;;;;;;2.03;1.93;;;;;;;2.18;100.00;99169.97;6236806;28;20687;-69
2024/02/09 04:11:23;;;;;;;2.13;1.97;;;;;;;2.12;100.00;99168.66;6243424;28;20231;-69
2024/02/09 04:14:44;;;;;;;2.97;2.77;;;;;;;1.95;100.00;99152.41;6244118;28;20750;-69
2024/02/09 04:18:07;;;;;;;2.93;2.63;;;;;;;2.08;100.00;99161.06;6236191;28;20224;-68
2024/02/09 04:21:30;;;;;;;1.83;1.73;;;;;;;2.11;100.00;99148.34;6238459;28;20224;-69
2024/02/09 04:24:51;;;;;;;4.37;2.50;;;;;;;2.07;100.00;99130.13;6243502;28;20224;-69
2024/02/09 04:28:23;;;;;;;1.87;1.77;;;;;;;2.10;100.00;99129.88;6248430;28;20236;-70
2024/02/09 04:31:44;;;;;;;2.47;2.27;;;;;;;2.05;100.00;99132.06;6223056;28;20330;-69
2024/02/09 04:35:05;;;;;;;2.07;1.97;;;;;;;1.96;100.00;99123.03;6242062;28;20824;-68
2024/02/09 04:38:26;;;;;;;2.13;2.00;;;;;;;2.05;100.00;99122.28;6249117;28;20216;-69
2024/02/09 04:41:49;;;;;;;2.10;1.97;;;;;;;2.03;100.00;99116.25;6198696;28;20633;-68
2024/02/09 04:45:12;;;;;;;2.40;2.13;;;;;;;2.02;100.00;99111.09;6219519;28;22463;-68
2024/02/09 04:48:33;;;;;;;2.03;1.80;;;;;;;2.03;100.00;99112.75;6244326;28;20612;-69
2024/02/09 04:51:54;;;;;;;2.10;2.00;;;;;;;2.08;100.00;99105.25;6243343;28;20224;-69
2024/02/09 04:55:15;;;;;;;2.70;2.50;;;;;;;2.16;100.00;99101.00;6243293;28;20326;-69
2024/02/09 04:58:36;;;;;;;1.70;1.60;;;;;;;2.10;100.00;99090.88;6245743;28;20224;-69
2024/02/09 05:01:58;;;;;;;5.07;2.30;;;;;;;2.07;100.00;99087.63;6231506;28;20255;-69
2024/02/09 05:05:22;;;;;;;2.47;2.27;;;;;;;2.05;100.00;99085.09;6240037;28;20224;-68
2024/02/09 05:08:43;;;;;;;2.00;1.80;;;;;;;2.03;100.00;99081.72;6246355;28;20878;-68
2024/02/09 05:12:06;;;;;;;1.70;1.60;;;;;;;2.08;100.00;99076.03;6226730;28;20232;-69
2024/02/09 05:15:27;;;;;;;2.07;1.93;;;;;;;2.00;100.00;99073.16;6241730;28;20310;-69
2024/02/09 05:18:50;;;;;;;2.53;2.33;;;;;;;1.89;100.00;99060.78;6249017;28;20235;-70
2024/02/09 05:22:11;;;;;;;3.13;2.93;;;;;;;2.08;100.00;99068.06;6243258;28;20228;-69
2024/02/09 05:25:33;;;;;;;2.07;1.97;;;;;;;2.05;100.00;99069.16;6242510;28;20231;-68
2024/02/09 05:28:54;;;;;;;1.87;1.77;;;;;;;2.06;100.00;99059.38;6226962;28;20626;-68
2024/02/09 05:32:15;;;;;;;1.73;1.63;;;;;;;2.15;100.00;99051.47;6241539;28;20283;-68
2024/02/09 05:35:38;;;;;;;2.07;1.80;;;;;;;2.12;100.00;99050.88;6238515;28;20251;-69
2024/02/09 05:39:00;;;;;;;1.77;1.67;;;;;;;2.10;100.00;99040.41;6226957;28;20748;-69
2024/02/09 05:42:21;;;;;;;1.40;1.30;;;;;;;2.15;100.00;99042.66;6235661;28;20231;-69
2024/02/09 05:45:42;;;;;;;1.53;1.53;;;;;;;2.07;100.00;99045.09;6239346;28;20235;-68
2024/02/09 05:49:06;;;;;;;3.20;2.90;;;;;;;2.08;100.00;99039.69;6246221;28;20225;-69
2024/02/09 05:52:29;;;;;;;2.00;1.80;;;;;;;2.09;100.00;99038.69;6235548;28;20661;-69
2024/02/09 05:55:51;;;;;;;1.67;1.57;;;;;;;2.14;100.00;99041.81;6238379;28;20240;-69
2024/02/09 05:59:13;;;;;;;2.03;1.93;;;;;;;2.07;100.00;99043.28;6246170;28;20794;-69
2024/02/09 06:02:34;;;;;;;2.20;1.40;;;;;;;2.14;100.00;99043.63;6230944;28;20315;-69
2024/02/09 06:05:55;;;;;;;1.37;1.37;;;;;;;2.12;100.00;99041.09;6237646;28;20229;-69
2024/02/09 06:09:18;;;;;;;1.53;1.43;;;;;;;2.10;100.00;99031.56;6249082;28;20231;-72
2024/02/09 06:12:38;;;;;;;2.17;1.50;;;;;;;2.14;100.00;99025.03;6231942;28;20240;-69
2024/02/09 06:15:59;;;;;;;1.53;1.43;;;;;;;2.08;100.00;99025.53;6232229;28;20228;-68
2024/02/09 06:19:23;;;;;;;1.00;0.93;;;;;;;2.11;100.00;99019.94;6228878;28;20255;-69
2024/02/09 06:22:43;;;;;;;2.03;1.40;;;;;;;2.00;100.00;99010.22;6233704;28;20263;-70
2024/02/09 06:26:06;;;;;;;1.70;1.60;;;;;;;2.08;100.00;99002.47;6235988;28;20228;-69
2024/02/09 06:29:27;;;;;;;2.30;1.20;;;;;;;2.04;100.00;99006.38;6247476;28;20239;-69
2024/02/09 06:32:48;;;;;;;1.63;1.53;;;;;;;2.08;100.00;99010.44;6235452;28;20511;-68
2024/02/09 06:36:10;;;;;;;1.23;1.23;;;;;;;2.11;100.00;99010.19;6236599;28;20236;-68
2024/02/09 06:39:30;;;;;;;1.57;1.07;;;;;;;2.18;100.00;99005.19;6244677;28;20693;-68
2024/02/09 06:42:53;;;;;;;0.90;0.90;;;;;;;2.19;100.00;99014.88;6217890;28;20236;-70
2024/02/09 06:46:17;;;;;;;1.53;1.43;;;;;;;2.13;100.00;99002.91;6212815;28;20734;-68
2024/02/09 06:49:38;;;;;;;1.10;1.00;;;;;;;2.15;100.00;99008.13;6243471;28;20236;-68
2024/02/09 06:52:59;;;;;;;1.23;1.23;;;;;;;2.12;100.00;99009.22;6235009;28;20220;-69
2024/02/09 06:56:20;;;;;;;1.40;1.30;;;;;;;2.11;100.00;99006.66;6237396;28;20302;-68
2024/02/09 06:59:45;;;;;;;2.03;1.93;;;;;;;2.21;100.00;99005.75;6246627;28;20257;-69
2024/02/09 07:03:06;;;;;;;1.83;1.73;;;;;;;2.16;100.00;99007.13;6231555;28;20535;-69
2024/02/09 07:06:27;;;;;;;1.47;1.37;;;;;;;2.11;100.00;98999.53;6235661;28;20733;-68
2024/02/09 07:09:48;;;;;;;0.90;0.90;;;;;;;2.18;100.00;98998.06;6239689;28;22017;-67
2024/02/09 07:13:09;;;;;;;1.20;1.10;;;;;;;2.23;100.00;99006.47;6240454;28;20231;-67
2024/02/09 07:20:52;;;;;;;1.33;1.33;;;;;;;2.23;100.00;99008.31;6397897;23;21545;-70
2024/02/09 07:24:13;;;;;;;1.67;1.53;;;;;;;2.20;100.00;99001.44;6137487;28;20325;-68
2024/02/09 07:27:33;;;;;;;1.93;1.63;;;;;;;2.21;100.00;98989.00;6121333;28;20456;-69
2024/02/09 07:30:55;;;;;;;1.17;1.17;;;;;;;2.22;100.00;98991.53;6139309;28;20235;-68
2024/02/09 07:34:16;;;;;;;1.53;1.43;;;;;;;2.25;100.00;98977.13;6147287;28;20515;-68
2024/02/09 07:37:38;;;;;;;2.10;2.00;;;;;;;2.32;100.00;98978.28;6143421;28;20230;-69
2024/02/09 07:40:59;;;;;;;2.63;2.43;;;;;;;2.35;100.00;98978.03;6144299;28;20234;-69
2024/02/09 07:44:20;;;;;;;1.83;1.73;;;;;;;2.31;100.00;98968.63;6145680;28;20245;-68
2024/02/09 07:47:41;;;;;;;5.63;2.50;;;;;;;2.23;100.00;98965.78;6135856;28;20242;-69
2024/02/09 07:51:04;;;;;;;3.33;2.97;;;;;;;2.35;100.00;98965.59;6139167;28;22088;-67
2024/02/09 07:54:27;;;;;;;1.97;1.70;;;;;;;2.36;100.00;98961.94;6138411;28;22917;-70
2024/02/09 07:57:48;;;;;;;1.70;1.60;;;;;;;2.32;100.00;98962.31;6137234;28;20226;-71
2024/02/09 08:01:09;;;;;;;1.90;1.77;;;;;;;2.36;100.00;98956.63;6137099;28;20239;-69
2024/02/09 08:04:31;;;;;;;1.50;1.40;;;;;;;2.33;100.00;98942.75;6102493;28;20309;-68
2024/02/09 08:07:52;;;;;;;2.10;2.00;;;;;;;2.47;100.00;98947.72;6138332;28;20227;-69
2024/02/09 08:11:14;;;;;;;1.53;1.30;;;;;;;2.21;100.00;98935.84;6142774;28;20246;-69
2024/02/09 08:14:37;;;;;;;1.43;1.33;;;;;;;2.39;100.00;98951.06;6151053;28;20234;-69
2024/02/09 08:17:58;;;;;;;1.10;1.10;;;;;;;2.46;100.00;98940.72;6145788;28;20239;-69
2024/02/09 08:21:19;;;;;;;2.10;2.00;;;;;;;2.47;100.00;98937.09;6142143;28;20226;-68
2024/02/09 08:24:39;;;;;;;1.47;1.37;;;;;;;2.35;100.00;98931.03;6151380;28;20227;-69
2024/02/09 08:28:01;;;;;;;1.57;1.43;;;;;;;2.26;100.00;98931.81;6136092;28;20234;-69
2024/02/09 08:31:22;;;;;;;1.50;1.40;;;;;;;2.33;100.00;98924.16;6129692;28;20629;-66
2024/02/09 08:34:43;;;;;;;2.63;2.43;;;;;;;2.33;100.00;98922.34;6146353;28;20238;-68
2024/02/09 08:38:05;;;;;;;1.57;1.33;;;;;;;2.34;100.00;98912.53;6145156;28;20257;-69
2024/02/09 08:41:26;;;;;;;1.07;1.07;;;;;;;2.38;100.00;98916.59;6136752;28;20680;-68
2024/02/09 08:44:49;;;;;;;1.40;1.17;;;;;;;2.29;100.00;98906.78;6145798;28;20239;-68
2024/02/09 08:48:09;;;;;;;1.50;1.40;;;;;;;2.27;100.00;98914.06;6134678;28;20246;-67
2024/02/09 08:51:31;;;;;;;1.80;1.70;;;;;;;2.38;100.00;98912.13;6139546;28;20569;-68
2024/02/09 08:54:52;;;;;;;1.17;1.17;;;;;;;2.37;100.00;98905.16;6135541;28;20892;-66
2024/02/09 08:58:13;;;;;;;1.57;1.47;;;;;;;2.52;100.00;98904.78;6136578;28;20227;-67
2024/02/09 09:01:36;;;;;;;1.13;1.13;;;;;;;2.59;100.00;98909.41;6131830;28;20231;-69
2024/02/09 09:04:57;;;;;;;1.60;1.53;;;;;;;2.45;100.00;98904.47;6127294;28;20231;-66
2024/02/09 09:08:18;;;;;;;1.87;1.77;;;;;;;2.32;100.00;98899.38;6140379;28;20227;-68
2024/02/09 09:11:38;;;;;;;1.83;1.73;;;;;;;2.36;100.00;98902.59;6136599;28;20235;-68
2024/02/09 09:15:03;;;;;;;1.67;1.53;;;;;;;2.51;100.00;98895.09;6145040;28;20238;-67
2024/02/09 09:18:27;;;;;;;1.33;1.33;;;;;;;2.52;100.00;98910.09;6148028;28;20231;-66
2024/02/09 09:21:47;;;;;;;2.20;2.00;;;;;;;2.42;100.00;98910.88;6145323;28;22547;-67
2024/02/09 09:25:09;;;;;;;1.50;1.40;;;;;;;2.44;100.00;98911.59;6143263;28;20223;-68
2024/02/09 09:28:30;;;;;;;2.00;1.90;;;;;;;2.54;100.00;98895.69;6150098;28;20239;-67
2024/02/09 09:31:51;;;;;;;3.60;1.83;;;;;;;2.65;100.00;98892.91;6112868;28;20239;-68
2024/02/09 09:35:14;;;;;;;1.67;1.57;;;;;;;2.65;100.00;98895.56;6138611;28;20234;-70
2024/02/09 09:38:38;;;;;;;1.40;1.30;;;;;;;2.58;100.00;98890.94;6140424;28;21144;-67
2024/02/09 09:42:00;;;;;;;1.53;1.43;;;;;;;2.69;100.00;98888.19;6148918;28;20235;-68
2024/02/09 09:45:21;;;;;;;1.30;1.20;;;;;;;2.70;100.00;98889.84;6130497;28;20246;-67
2024/02/09 09:48:44;;;;;;;1.17;1.10;;;;;;;2.66;100.00;98888.44;6149701;28;20231;-67
2024/02/09 09:52:12;;;;;;;1.73;1.40;;;;;;;2.81;100.00;98887.09;6143629;28;20234;-68
2024/02/09 09:55:34;;;;;;;1.67;1.57;;;;;;;2.82;100.00;98881.63;6145083;28;20334;-68
2024/02/09 09:58:55;;;;;;;2.17;1.37;;;;;;;2.81;100.00;98882.63;6153709;28;20238;-67
2024/02/09 10:02:16;;;;;;;1.87;1.77;;;;;;;2.84;100.00;98881.47;6140732;28;20318;-68
2024/02/09 10:05:37;;;;;;;1.50;1.40;;;;;;;2.78;100.00;98890.84;6146647;28;20230;-67
2024/02/09 10:08:59;;;;;;;1.43;1.20;;;;;;;2.89;100.00;98881.94;6153011;28;20226;-68
2024/02/09 10:12:22;;;;;;;1.07;1.07;;;;;;;3.02;100.00;98887.84;6143848;28;20242;-67
2024/02/09 10:15:47;;;;;;;0.80;0.80;;;;;;;2.96;100.00;98881.22;6142816;28;20254;-68
2024/02/09 10:19:07;;;;;;;1.13;1.13;;;;;;;3.01;100.00;98871.03;6142001;28;20231;-67
2024/02/09 10:22:28;;;;;;;1.07;1.07;;;;;;;2.84;100.00;98865.50;6140138;28;20231;-67
2024/02/09 10:25:51;;;;;;;2.50;2.07;;;;;;;2.81;100.00;98874.63;6144340;28;20258;-67
2024/02/09 10:29:14;;;;;;;1.23;1.20;;;;;;;2.91;100.00;98869.31;6150224;28;20628;-67
2024/02/09 10:32:35;;;;;;;1.40;1.40;;;;;;;2.96;100.00;98873.25;6135695;28;20227;-67
2024/02/09 10:35:56;;;;;;;0.93;0.93;;;;;;;2.97;100.00;98877.59;6143909;28;20235;-68
2024/02/09 10:39:17;;;;;;;2.03;1.87;;;;;;;2.99;100.00;98864.16;6142993;28;20620;-68
2024/02/09 10:42:40;;;;;;;1.30;1.20;;;;;;;2.93;100.00;98852.25;6143675;28;20235;-66
2024/02/09 10:46:01;;;;;;;1.20;1.20;;;;;;;2.93;100.00;98846.94;6111224;28;20354;-67
2024/02/09 10:49:23;;;;;;;1.23;1.23;;;;;;;2.84;100.00;98847.75;6137438;28;20814;-67
2024/02/09 10:52:48;;;;;;;1.50;1.40;;;;;;;2.93;100.00;98838.94;6137311;28;20254;-68
2024/02/09 10:56:13;;;;;;;1.70;1.57;;;;;;;2.92;100.00;98855.06;6127523;28;20735;-68
2024/02/09 10:59:36;;;;;;;0.97;0.97;;;;;;;2.91;100.00;98853.34;6147188;28;20230;-69
2024/02/09 11:02:57;;;;;;;1.10;1.10;;;;;;;2.99;100.00;98846.38;6137728;28;20617;-64
2024/02/09 11:06:18;;;;;;;1.50;1.50;;;;;;;3.09;100.00;98846.38;6147577;28;20238;-68
2024/02/09 11:09:41;;;;;;;1.00;1.00;;;;;;;3.00;100.00;98845.38;6150244;28;20231;-66
2024/02/09 11:13:03;;;;;;;1.33;1.23;;;;;;;2.97;100.00;98835.03;6134592;28;20239;-68
2024/02/09 11:16:26;;;;;;;1.50;1.40;;;;;;;2.85;100.00;98820.19;6141851;28;20589;-67
2024/02/09 11:19:48;;;;;;;2.70;1.10;;;;;;;3.03;100.00;98826.47;6143798;28;20262;-66
2024/02/09 11:23:11;;;;;;;1.30;1.20;;;;;;;3.09;100.00;98823.25;6149754;28;20228;-67
2024/02/09 11:26:37;;;;;;;1.97;1.40;;;;;;;3.17;100.00;98812.75;6138340;28;20270;-68
2024/02/09 11:29:58;;;;;;;2.00;1.87;;;;;;;3.18;100.00;98810.94;6145842;28;20240;-67
2024/02/09 11:33:20;;;;;;;1.17;0.93;;;;;;;3.23;100.00;98806.84;6148211;28;20233;-70
2024/02/09 11:36:41;;;;;;;1.67;1.53;;;;;;;3.06;100.00;98801.41;6127321;28;20234;-68
2024/02/09 11:40:03;;;;;;;1.23;1.13;;;;;;;3.02;100.00;98810.66;6139552;28;20990;-69
2024/02/09 11:43:25;;;;;;;0.90;0.90;;;;;;;3.08;100.00;98799.44;6148684;28;20379;-68
2024/02/09 11:46:48;;;;;;;1.10;1.10;;;;;;;3.14;100.00;98789.09;6129307;28;20235;-70
2024/02/09 11:50:21;;;;;;;1.23;1.23;;;;;;;3.23;100.00;98790.06;6130284;28;20231;-68
2024/02/09 11:53:42;;;;;;;1.13;1.00;;;;;;;3.17;100.00;98782.66;6149391;28;20366;-67
2024/02/09 11:57:03;;;;;;;1.57;1.47;;;;;;;3.12;100.00;98787.53;6145836;28;20234;-67
2024/02/09 12:00:28;;;;;;;1.33;1.33;;;;;;;3.23;100.00;98790.88;6144313;28;20827;-68
2024/02/09 12:03:49;;;;;;;1.20;1.20;;;;;;;3.20;100.00;98779.69;6147032;28;20508;-66
2024/02/09 12:07:12;;;;;;;1.10;1.10;;;;;;;3.23;100.00;98782.09;6137545;28;20234;-67
2024/02/09 12:10:35;;;;;;;1.00;1.00;;;;;;;3.32;100.00;98773.22;6139260;28;20226;-68
2024/02/09 12:13:57;;;;;;;2.13;1.10;;;;;;;3.32;100.00;98767.09;6141680;28;20232;-68
2024/02/09 12:17:18;;;;;;;1.10;1.00;;;;;;;3.44;100.00;98764.13;6134599;28;20239;-67
2024/02/09 12:20:39;;;;;;;0.90;0.90;;;;;;;3.44;100.00;98761.44;6133588;28;20226;-67
2024/02/09 12:24:02;;;;;;;0.80;0.80;;;;;;;3.41;100.00;98767.06;6140353;28;20234;-69
2024/02/09 12:27:23;;;;;;;0.97;0.97;;;;;;;3.34;100.00;98755.28;6147187;28;20679;-68
2024/02/09 12:30:44;;;;;;;1.40;1.00;;;;;;;3.38;100.00;98753.19;6135840;28;20569;-68
2024/02/09 12:34:04;;;;;;;1.00;1.00;;;;;;;3.37;100.00;98754.16;6146279;28;20247;-69
2024/02/09 12:37:26;;;;;;;1.00;0.83;;;;;;;3.37;100.00;98746.16;6134241;28;20238;-69
2024/02/09 12:40:55;;;;;;;1.00;1.00;;;;;;;3.36;100.00;98749.84;6142785;28;20323;-70
2024/02/09 12:44:18;;;;;;;0.80;0.80;;;;;;;3.44;100.00;98740.16;6150533;28;20241;-69
2024/02/09 12:47:38;;;;;;;0.90;0.90;;;;;;;3.34;100.00;98747.28;6131577;28;20999;-70
2024/02/09 12:50:59;;;;;;;1.40;1.30;;;;;;;3.31;100.00;98752.91;6142879;28;20247;-69
2024/02/09 12:54:21;;;;;;;0.73;0.73;;;;;;;3.35;100.00;98749.00;6141304;28;20227;-70
2024/02/09 12:57:43;;;;;;;0.83;0.83;;;;;;;3.39;100.00;98749.53;6141273;28;20226;-70
2024/02/09 13:01:06;;;;;;;1.00;1.00;;;;;;;3.36;100.00;98741.84;6130653;28;20502;-68
2024/02/09 13:04:27;;;;;;;1.17;1.10;;;;;;;3.36;100.00;98744.50;6151123;28;20267;-68
2024/02/09 13:07:50;;;;;;;1.13;1.13;;;;;;;3.46;100.00;98742.66;6132341;28;20255;-69
2024/02/09 13:11:11;;;;;;;1.23;1.20;;;;;;;3.50;100.00;98741.38;6141656;28;20259;-69
2024/02/09 13:14:34;;;;;;;1.40;1.40;;;;;;;3.43;100.00;98729.63;6154761;28;20255;-69
2024/02/09 13:17:55;;;;;;;1.00;1.00;;;;;;;3.42;100.00;98736.75;6135266;28;20633;-68
2024/02/09 13:21:16;;;;;;;2.27;1.70;;;;;;;3.46;100.00;98732.00;6144362;28;20605;-70
2024/02/09 13:24:39;;;;;;;0.83;0.83;;;;;;;3.49;100.00;98727.22;6151993;28;20497;-69
2024/02/09 13:28:01;;;;;;;1.27;1.23;;;;;;;3.53;100.00;98738.41;6130349;28;20298;-69
2024/02/09 13:31:23;;;;;;;1.20;1.10;;;;;;;3.47;100.00;98720.34;6144573;28;20235;-69
2024/02/09 13:34:45;;;;;;;1.90;1.80;;;;;;;3.40;100.00;98713.94;6148404;28;20517;-69
2024/02/09 13:38:05;;;;;;;1.57;1.37;;;;;;;3.51;100.00;98714.59;6146838;28;20512;-69
2024/02/09 13:41:27;;;;;;;1.20;1.13;;;;;;;3.56;100.00;98712.34;6143798;28;20230;-69
2024/02/09 13:44:48;;;;;;;1.47;1.37;;;;;;;3.60;100.00;98715.56;6149309;28;20246;-67
2024/02/09 13:48:10;;;;;;;1.10;1.10;;;;;;;3.59;100.00;98714.72;6141069;28;20255;-69
2024/02/09 13:51:32;;;;;;;1.17;1.07;;;;;;;3.57;100.00;98713.16;6142497;28;20230;-69
2024/02/09 13:54:55;;;;;;;1.30;1.20;;;;;;;3.63;100.00;98709.94;6141557;28;20239;-69
2024/02/09 13:58:16;;;;;;;1.80;1.70;;;;;;;3.72;100.00;98709.91;6150133;28;20558;-68
2024/02/09 14:01:37;;;;;;;1.17;1.17;;;;;;;3.68;100.00;98707.66;6137609;28;20235;-69
2024/02/09 14:05:00;;;;;;;2.60;2.40;;;;;;;3.72;100.00;98715.22;6149765;28;20238;-69
2024/02/09 14:08:21;;;;;;;2.40;2.20;;;;;;;3.72;100.00;98709.06;6112670;28;20242;-70
2024/02/09 14:11:44;;;;;;;1.20;1.10;;;;;;;3.65;100.00;98715.97;6144741;28;20570;-69
2024/02/09 14:15:06;;;;;;;2.13;1.90;;;;;;;3.67;100.00;98711.34;6150137;28;20231;-68
2024/02/09 14:18:27;;;;;;;1.03;1.03;;;;;;;3.70;100.00;98708.38;6144902;28;20231;-68
2024/02/09 14:21:50;;;;;;;1.27;1.27;;;;;;;3.73;100.00;98706.25;6139586;28;20239;-69
2024/02/09 14:25:12;;;;;;;1.47;1.37;;;;;;;3.81;100.00;98711.69;6144204;28;20572;-68
2024/02/09 14:28:34;;;;;;;1.07;1.07;;;;;;;3.83;100.00;98716.88;6148514;28;20239;-68
2024/02/09 14:31:55;;;;;;;1.30;1.20;;;;;;;3.88;100.00;98707.44;6139693;28;20231;-69
2024/02/09 14:35:16;;;;;;;1.60;1.50;;;;;;;3.89;100.00;98724.28;6135319;28;20218;-70
2024/02/09 14:38:38;;;;;;;0.80;0.80;;;;;;;3.84;100.00;98726.53;6145531;28;20235;-69
2024/02/09 14:41:59;;;;;;;1.50;1.40;;;;;;;3.89;100.00;98717.13;6141567;28;20273;-70
2024/02/09 14:45:23;;;;;;;1.47;1.00;;;;;;;3.84;100.00;98730.03;6130906;28;20628;-69
2024/02/09 14:48:43;;;;;;;1.20;1.20;;;;;;;3.84;100.00;98727.38;6143193;28;20231;-70
2024/02/09 14:52:07;;;;;;;1.20;1.20;;;;;;;3.82;100.00;98724.00;6146651;28;20234;-70
2024/02/09 14:55:29;;;;;;;1.67;1.57;;;;;;;3.86;100.00;98719.22;6147304;28;20222;-70
2024/02/09 14:58:53;;;;;;;1.03;1.03;;;;;;;3.88;100.00;98719.94;6148278;28;20884;-70
2024/02/09 15:02:14;;;;;;;1.73;1.63;;;;;;;3.97;100.00;98727.88;6142091;28;20239;-70
2024/02/09 15:05:35;;;;;;;1.47;1.47;;;;;;;3.92;100.00;98719.47;6120499;28;20234;-69
2024/02/09 15:08:56;;;;;;;1.80;1.70;;;;;;;3.81;100.00;98726.84;6147181;28;20258;-69
2024/02/09 15:12:18;;;;;;;1.30;1.20;;;;;;;3.91;100.00;98728.47;6146964;28;20243;-70
2024/02/09 15:15:42;;;;;;;2.13;1.93;;;;;;;3.86;100.00;98729.88;6147604;28;20230;-71
2024/02/09 15:19:03;;;;;;;2.77;1.93;;;;;;;4.02;100.00;98730.97;6143896;28;21445;-69
2024/02/09 15:22:24;;;;;;;2.10;2.00;;;;;;;4.27;100.00;98720.56;6142160;28;20242;-68
2024/02/09 15:25:45;;;;;;;6.13;3.20;;;;;;;4.22;100.00;98729.00;6135147;28;20242;-70
2024/02/09 15:29:07;;;;;;;2.50;2.30;;;;;;;4.11;100.00;98728.38;6145626;28;20621;-70
2024/02/09 15:32:28;;;;;;;4.47;2.33;;;;;;;4.09;100.00;98728.50;6126643;28;20234;-70
2024/02/09 15:35:49;;;;;;;1.30;1.20;;;;;;;3.98;100.00;98737.53;6138103;28;20245;-70
2024/02/09 15:39:10;;;;;;;1.90;1.80;;;;;;;3.96;100.00;98731.53;6146833;28;20631;-69
2024/02/09 15:42:34;;;;;;;1.90;1.80;;;;;;;4.10;100.00;98730.22;6137708;28;20606;-70
2024/02/09 15:45:56;;;;;;;3.23;2.17;;;;;;;4.08;100.00;98732.19;6137047;28;20231;-70
2024/02/09 15:49:17;;;;;;;2.30;2.20;;;;;;;4.07;100.00;98733.16;6139162;28;20274;-68
2024/02/09 15:52:38;;;;;;;2.10;2.00;;;;;;;4.15;100.00;98730.63;6139593;28;20254;-67
2024/02/09 15:56:05;;;;;;;2.40;2.20;;;;;;;4.16;100.00;98732.28;6139566;28;20227;-68
2024/02/09 15:59:28;;;;;;;6.83;2.97;;;;;;;4.11;100.00;98728.38;6121188;28;20299;-66
2024/02/09 16:02:50;;;;;;;1.60;1.50;;;;;;;4.22;100.00;98733.50;6116892;28;20601;-67
2024/02/09 16:06:13;;;;;;;1.53;1.43;;;;;;;4.16;100.00;98726.09;6127345;28;20313;-69
2024/02/09 16:09:34;;;;;;;2.03;1.83;;;;;;;4.14;100.00;98728.06;6126772;28;20239;-68
2024/02/09 16:12:57;;;;;;;2.10;1.90;;;;;;;4.16;100.00;98732.28;6141749;28;20231;-68
2024/02/09 16:16:25;;;;;;;1.57;1.47;;;;;;;4.19;100.00;98718.66;6134138;28;20246;-70
2024/02/09 16:19:47;;;;;;;2.57;2.43;;;;;;;4.29;100.00;98723.91;6145867;28;20230;-68
2024/02/09 16:23:08;;;;;;;4.77;2.57;;;;;;;4.38;100.00;98723.84;6144390;28;20235;-69
2024/02/09 16:26:29;;;;;;;1.70;1.60;;;;;;;4.40;100.00;98721.06;6146836;28;20222;-68
2024/02/09 16:29:50;;;;;;;1.80;1.70;;;;;;;4.37;100.00;98727.53;6157462;28;20230;-67
2024/02/09 16:33:10;;;;;;;2.80;2.63;;;;;;;4.31;100.00;98733.47;6146040;28;20238;-67
2024/02/09 16:36:32;;;;;;;2.47;2.27;;;;;;;4.38;100.00;98737.19;6139524;28;20230;-67
2024/02/09 16:39:54;;;;;;;2.70;2.50;;;;;;;4.46;100.00;98734.63;6153860;28;20588;-68
2024/02/09 16:43:16;;;;;;;3.57;3.30;;;;;;;4.73;100.00;98739.06;6153041;28;20238;-68
2024/02/09 16:46:37;;;;;;;2.57;2.37;;;;;;;4.61;100.00;98742.97;6147211;28;20239;-68
2024/02/09 16:49:58;;;;;;;2.80;2.60;;;;;;;4.45;100.00;98740.94;6153863;28;20317;-67
2024/02/09 16:53:22;;;;;;;3.13;2.93;;;;;;;4.48;100.00;98732.66;6147192;28;20243;-67
2024/02/09 16:56:43;;;;;;;3.53;3.33;;;;;;;4.44;100.00;98725.94;6145552;28;20223;-67
2024/02/09 17:00:07;;;;;;;3.73;3.43;;;;;;;4.36;100.00;98731.16;6151015;28;20636;-69
2024/02/09 17:03:28;;;;;;;3.63;3.43;;;;;;;4.37;100.00;98729.34;6147751;28;20867;-69
2024/02/09 17:06:49;;;;;;;3.13;2.93;;;;;;;4.39;100.00;98730.88;6145050;28;20322;-68
2024/02/09 17:10:11;;;;;;;4.00;3.70;;;;;;;4.43;100.00;98732.25;6144785;28;20510;-68
2024/02/09 17:13:33;;;;;;;3.40;2.83;;;;;;;4.42;100.00;98733.22;6153976;28;20314;-67
2024/02/09 17:16:58;;;;;;;2.53;2.33;;;;;;;4.44;100.00;98728.59;6149846;28;20524;-68
2024/02/09 17:20:19;;;;;;;3.23;3.00;;;;;;;4.43;100.00;98739.41;6150708;28;20337;-67
2024/02/09 17:23:41;;;;;;;3.73;3.50;;;;;;;4.45;100.00;98740.94;6144915;28;20604;-68
2024/02/09 17:27:04;;;;;;;4.37;3.83;;;;;;;4.43;100.00;98739.41;6144410;28;20230;-69
2024/02/09 17:30:24;;;;;;;3.33;3.10;;;;;;;4.40;100.00;98742.38;6147740;28;20728;-68
2024/02/09 17:33:46;;;;;;;4.57;4.27;;;;;;;4.34;100.00;98749.16;6143989;28;20237;-69
2024/02/09 17:37:07;;;;;;;4.27;3.97;;;;;;;4.36;100.00;98749.84;6137491;28;20508;-68
2024/02/09 17:40:29;;;;;;;4.10;3.80;;;;;;;4.41;100.00;98762.72;6138647;28;20530;-68
2024/02/09 17:43:51;;;;;;;4.03;3.73;;;;;;;4.37;100.00;98758.69;6153939;28;20238;-69